Time,TemperatureF,DewpointF,PressureIn,WindDirection,WindDirectionDegrees,WindSpeedMPH,WindSpeedGustMPH,Humidity,HourlyPrecipIn,Conditions,Clouds,dailyrainin,SoftwareType,DateUTC
2013-02-22 00:00:00,39.9,25.0,30.28,NE,42,0.0,0.0,55,0.00,,,0.00,Wunderground v.1.15,2013-02-22 05:00:00,
2013-02-22 00:05:00,39.9,24.6,30.28,NE,42,0.0,0.0,54,0.00,,,0.00,Wunderground v.1.15,2013-02-22 05:05:00,
2013-02-22 00:10:00,39.8,24.5,30.27,NW,308,0.0,0.0,54,0.00,,,0.00,Wunderground v.1.15,2013-02-22 05:10:00,
2013-02-22 00:15:00,39.9,24.6,30.27,NW,326,0.0,1.0,54,0.00,,,0.00,Wunderground v.1.15,2013-02-22 05:15:00,
2013-02-22 00:20:00,39.8,24.5,30.27,North,360,0.0,0.0,54,0.00,,,0.00,Wunderground v.1.15,2013-02-22 05:20:00,
2013-02-22 00:25:00,39.8,24.5,30.27,WNW,290,0.0,0.0,54,0.00,,,0.00,Wunderground v.1.15,2013-02-22 05:25:00,
2013-02-22 00:30:00,39.8,23.6,30.28,NNW,345,0.0,0.0,52,0.00,,,0.00,Wunderground v.1.15,2013-02-22 05:30:00,
2013-02-22 00:35:00,39.8,23.6,30.29,West,265,0.0,3.0,52,0.00,,,0.00,Wunderground v.1.15,2013-02-22 05:35:00,
2013-02-22 00:40:00,39.8,24.0,30.31,WNW,282,0.0,0.0,53,0.00,,,0.00,Wunderground v.1.15,2013-02-22 05:40:00,
2013-02-22 00:50:00,39.7,23.5,30.32,NW,304,0.0,0.0,52,0.00,,,0.00,Wunderground v.1.15,2013-02-22 05:50:00,
2013-02-22 00:55:00,39.7,24.0,30.33,NW,304,0.0,0.0,53,0.00,,,0.00,Wunderground v.1.15,2013-02-22 05:55:00,
2013-02-22 01:00:00,39.7,24.0,30.33,NW,304,0.0,0.0,53,0.00,,,0.00,Wunderground v.1.15,2013-02-22 06:00:00,
2013-02-22 01:05:00,39.7,24.0,30.33,NW,304,0.0,0.0,53,0.00,,,0.00,Wunderground v.1.15,2013-02-22 06:05:00,
2013-02-22 01:15:00,39.5,23.8,30.34,NW,304,0.0,0.0,53,0.00,,,0.00,Wunderground v.1.15,2013-02-22 06:15:00,
2013-02-22 01:20:00,39.5,23.8,30.35,NW,304,0.0,0.0,53,0.00,,,0.00,Wunderground v.1.15,2013-02-22 06:20:00,
2013-02-22 01:25:00,39.5,24.2,30.37,NW,304,0.0,0.0,54,0.00,,,0.00,Wunderground v.1.15,2013-02-22 06:25:00,
2013-02-22 01:30:00,39.4,24.6,30.38,NW,304,0.0,0.0,55,0.00,,,0.00,Wunderground v.1.15,2013-02-22 06:30:00,
2013-02-22 01:35:00,39.3,24.5,30.38,NW,304,0.0,0.0,55,0.00,,,0.00,Wunderground v.1.15,2013-02-22 06:35:00,
2013-02-22 01:40:00,39.3,24.9,30.38,NW,304,0.0,0.0,56,0.00,,,0.00,Wunderground v.1.15,2013-02-22 06:40:00,
2013-02-22 01:45:00,39.2,24.4,30.38,NW,304,0.0,0.0,55,0.00,,,0.00,Wunderground v.1.15,2013-02-22 06:45:00,
2013-02-22 01:55:00,39.0,24.2,30.38,NW,304,0.0,0.0,55,0.00,,,0.00,Wunderground v.1.15,2013-02-22 06:55:00,
2013-02-22 02:00:00,39.0,23.7,30.38,NW,304,0.0,0.0,54,0.00,,,0.00,Wunderground v.1.15,2013-02-22 07:00:00,
2013-02-22 02:05:00,38.9,24.1,30.37,NW,304,0.0,0.0,55,0.00,,,0.00,Wunderground v.1.15,2013-02-22 07:05:00,
2013-02-22 02:10:00,38.8,24.4,30.37,NW,304,0.0,0.0,56,0.00,,,0.00,Wunderground v.1.15,2013-02-22 07:10:00,
2013-02-22 02:15:00,38.8,24.4,30.36,NW,304,0.0,0.0,56,0.00,,,0.00,Wunderground v.1.15,2013-02-22 07:15:00,
2013-02-22 02:20:00,38.7,24.8,30.35,NW,321,0.0,0.0,57,0.00,,,0.00,Wunderground v.1.15,2013-02-22 07:20:00,
2013-02-22 02:30:00,38.6,24.2,30.35,NW,311,0.0,0.0,56,0.00,,,0.00,Wunderground v.1.15,2013-02-22 07:30:00,
2013-02-22 02:35:00,38.6,24.7,30.35,NW,311,0.0,0.0,57,0.00,,,0.00,Wunderground v.1.15,2013-02-22 07:35:00,
2013-02-22 02:40:00,38.5,25.0,30.35,NW,311,0.0,0.0,58,0.00,,,0.00,Wunderground v.1.15,2013-02-22 07:40:00,
2013-02-22 02:45:00,38.3,26.4,30.35,NW,311,0.0,0.0,62,0.00,,,0.00,Wunderground v.1.15,2013-02-22 07:45:00,
2013-02-22 02:50:00,38.2,27.1,30.34,NW,311,0.0,0.0,64,0.00,,,0.00,Wunderground v.1.15,2013-02-22 07:50:00,
2013-02-22 03:00:00,37.5,28.9,30.35,NW,311,0.0,0.0,71,0.00,,,0.01,Wunderground v.1.15,2013-02-22 08:00:00,
2013-02-22 03:05:00,37.2,29.0,30.35,NW,311,0.0,0.0,72,0.00,,,0.01,Wunderground v.1.15,2013-02-22 08:05:00,
2013-02-22 03:15:00,36.6,30.1,30.34,NW,311,0.0,0.0,77,0.04,,,0.02,Wunderground v.1.15,2013-02-22 08:15:00,
2013-02-22 03:20:00,36.2,30.3,30.35,NW,311,0.0,0.0,79,0.04,,,0.02,Wunderground v.1.15,2013-02-22 08:20:00,
2013-02-22 03:25:00,35.9,30.6,30.35,NW,311,0.0,0.0,81,0.07,,,0.03,Wunderground v.1.15,2013-02-22 08:25:00,
2013-02-22 03:35:00,35.2,30.6,30.35,NW,311,0.0,0.0,83,0.07,,,0.04,Wunderground v.1.15,2013-02-22 08:35:00,
2013-02-22 03:40:00,34.8,30.5,30.35,NW,311,0.0,0.0,84,0.06,,,0.04,Wunderground v.1.15,2013-02-22 08:40:00,
2013-02-22 03:45:00,34.5,30.5,30.36,NW,311,0.0,0.0,85,0.06,,,0.05,Wunderground v.1.15,2013-02-22 08:45:00,
2013-02-22 03:50:00,34.4,30.6,30.35,NW,311,0.0,0.0,86,0.06,,,0.05,Wunderground v.1.15,2013-02-22 08:50:00,
2013-02-22 03:55:00,34.4,30.6,30.35,NW,311,0.0,0.0,86,0.05,,,0.06,Wunderground v.1.15,2013-02-22 08:55:00,
2013-02-22 04:05:00,34.1,30.9,30.35,NW,311,0.0,0.0,88,0.06,,,0.07,Wunderground v.1.15,2013-02-22 09:05:00,
2013-02-22 04:15:00,33.8,30.9,30.35,NW,311,0.0,0.0,89,0.05,,,0.07,Wunderground v.1.15,2013-02-22 09:15:00,
2013-02-22 04:20:00,33.7,30.8,30.35,NW,311,0.0,0.0,89,0.04,,,0.08,Wunderground v.1.15,2013-02-22 09:20:00,
2013-02-22 04:25:00,33.6,30.7,30.35,NW,311,0.0,0.0,89,0.04,,,0.08,Wunderground v.1.15,2013-02-22 09:25:00,
2013-02-22 04:30:00,33.5,30.9,30.35,NW,311,0.0,0.0,90,0.04,,,0.08,Wunderground v.1.15,2013-02-22 09:30:00,
2013-02-22 04:40:00,33.3,30.7,30.35,NW,311,0.0,0.0,90,0.00,,,0.08,Wunderground v.1.15,2013-02-22 09:40:00,
2013-02-22 04:45:00,33.3,31.0,30.34,NW,311,0.0,0.0,91,0.00,,,0.08,Wunderground v.1.15,2013-02-22 09:45:00,
2013-02-22 04:50:00,33.3,31.0,30.33,NW,311,0.0,0.0,91,0.00,,,0.09,Wunderground v.1.15,2013-02-22 09:50:00,
2013-02-22 04:55:00,33.2,30.9,30.33,NW,311,0.0,0.0,91,0.00,,,0.09,Wunderground v.1.15,2013-02-22 09:55:00,
2013-02-22 05:00:00,33.1,30.8,30.33,NW,311,0.0,0.0,91,0.07,,,0.10,Wunderground v.1.15,2013-02-22 10:00:00,
2013-02-22 05:05:00,32.9,30.6,30.31,NW,309,0.0,0.0,91,0.07,,,0.10,Wunderground v.1.15,2013-02-22 10:05:00,
2013-02-22 05:15:00,32.6,30.5,30.32,NW,309,0.0,0.0,92,0.06,,,0.11,Wunderground v.1.15,2013-02-22 10:15:00,
2013-02-22 05:20:00,32.5,30.4,30.31,NE,53,0.0,0.0,92,0.04,,,0.11,Wunderground v.1.15,2013-02-22 10:20:00,
2013-02-22 05:25:00,32.4,30.3,30.30,East,95,0.0,0.0,92,0.04,,,0.12,Wunderground v.1.15,2013-02-22 10:25:00,
2013-02-22 05:30:00,32.2,30.1,30.29,East,95,0.0,0.0,92,0.04,,,0.12,Wunderground v.1.15,2013-02-22 10:30:00,
2013-02-22 05:35:00,32.1,30.0,30.29,East,97,0.0,0.0,92,0.04,,,0.12,Wunderground v.1.15,2013-02-22 10:35:00,
2013-02-22 05:45:00,32.1,30.0,30.28,ENE,65,0.0,0.0,92,0.04,,,0.13,Wunderground v.1.15,2013-02-22 10:45:00,
2013-02-22 05:50:00,32.0,29.9,30.28,East,79,0.0,0.0,92,0.04,,,0.13,Wunderground v.1.15,2013-02-22 10:50:00,
2013-02-22 05:55:00,31.9,29.8,30.28,West,259,0.0,0.0,92,0.00,,,0.13,Wunderground v.1.15,2013-02-22 10:55:00,
2013-02-22 06:00:00,31.9,29.8,30.28,West,259,0.0,0.0,92,0.00,,,0.14,Wunderground v.1.15,2013-02-22 11:00:00,
2013-02-22 06:05:00,31.8,29.7,30.27,East,82,0.0,0.0,92,0.00,,,0.14,Wunderground v.1.15,2013-02-22 11:05:00,
2013-02-22 06:15:00,31.6,29.5,30.27,East,82,0.0,0.0,92,0.00,,,0.14,Wunderground v.1.15,2013-02-22 11:15:00,
2013-02-22 06:20:00,31.6,29.5,30.27,South,190,0.0,0.0,92,0.00,,,0.14,Wunderground v.1.15,2013-02-22 11:20:00,
2013-02-22 06:25:00,31.6,29.5,30.25,South,190,0.0,0.0,92,0.00,,,0.14,Wunderground v.1.15,2013-02-22 11:25:00,
2013-02-22 06:30:00,31.6,29.5,30.27,South,190,0.0,0.0,92,0.00,,,0.14,Wunderground v.1.15,2013-02-22 11:30:00,
2013-02-22 06:35:00,31.5,29.4,30.29,South,190,0.0,1.0,92,0.00,,,0.14,Wunderground v.1.15,2013-02-22 11:35:00,
2013-02-22 06:40:00,31.5,29.4,30.30,East,94,0.0,0.0,92,0.00,,,0.14,Wunderground v.1.15,2013-02-22 11:40:00,
2013-02-22 06:50:00,31.5,29.7,30.33,SSE,168,0.0,0.0,93,0.00,,,0.14,Wunderground v.1.15,2013-02-22 11:50:00,
2013-02-22 06:55:00,31.6,29.8,30.34,SSE,168,0.0,0.0,93,0.00,,,0.14,Wunderground v.1.15,2013-02-22 11:55:00,
2013-02-22 07:00:00,31.6,29.8,30.33,SSE,168,0.0,0.0,93,0.00,,,0.14,Wunderground v.1.15,2013-02-22 12:00:00,
2013-02-22 07:05:00,31.6,29.8,30.32,SSE,168,0.0,0.0,93,0.00,,,0.14,Wunderground v.1.15,2013-02-22 12:05:00,
2013-02-22 07:15:00,31.6,29.8,30.32,SSE,168,0.0,0.0,93,0.00,,,0.14,Wunderground v.1.15,2013-02-22 12:15:00,
2013-02-22 07:20:00,31.6,29.8,30.32,SSE,168,0.0,0.0,93,0.00,,,0.14,Wunderground v.1.15,2013-02-22 12:20:00,
2013-02-22 07:25:00,31.6,29.8,30.33,SSE,168,0.0,0.0,93,0.00,,,0.14,Wunderground v.1.15,2013-02-22 12:25:00,
2013-02-22 07:30:00,31.7,29.9,30.34,SSE,168,0.0,0.0,93,0.00,,,0.14,Wunderground v.1.15,2013-02-22 12:30:00,
2013-02-22 07:35:00,31.7,29.9,30.34,SSE,168,0.0,0.0,93,0.00,,,0.14,Wunderground v.1.15,2013-02-22 12:35:00,
2013-02-22 07:40:00,31.7,29.9,30.34,SSE,168,0.0,0.0,93,0.00,,,0.14,Wunderground v.1.15,2013-02-22 12:40:00,
2013-02-22 07:45:00,31.7,29.9,30.34,SSE,168,0.0,0.0,93,0.00,,,0.14,Wunderground v.1.15,2013-02-22 12:45:00,
2013-02-22 07:55:00,31.8,30.0,30.35,SSE,168,0.0,0.0,93,0.00,,,0.14,Wunderground v.1.15,2013-02-22 12:55:00,
2013-02-22 08:00:00,31.9,30.1,30.35,SSE,168,0.0,0.0,93,0.00,,,0.14,Wunderground v.1.15,2013-02-22 13:00:00,
2013-02-22 08:05:00,32.0,30.2,30.36,SSE,168,0.0,0.0,93,0.00,,,0.14,Wunderground v.1.15,2013-02-22 13:05:00,
2013-02-22 08:15:00,32.2,30.4,30.36,SSE,168,0.0,0.0,93,0.00,,,0.15,Wunderground v.1.15,2013-02-22 13:15:00,
2013-02-22 08:20:00,32.1,30.3,30.36,SSE,168,0.0,0.0,93,0.00,,,0.15,Wunderground v.1.15,2013-02-22 13:20:00,
2013-02-22 08:30:00,32.2,30.4,30.34,SSE,168,0.0,0.0,93,0.00,,,0.15,Wunderground v.1.15,2013-02-22 13:30:00,
2013-02-22 08:35:00,32.3,30.5,30.35,SSE,168,0.0,0.0,93,0.00,,,0.15,Wunderground v.1.15,2013-02-22 13:35:00,
2013-02-22 08:40:00,32.4,30.6,30.35,SSE,168,0.0,0.0,93,0.00,,,0.15,Wunderground v.1.15,2013-02-22 13:40:00,
2013-02-22 08:45:00,32.5,30.7,30.36,South,170,0.0,0.0,93,0.00,,,0.15,Wunderground v.1.15,2013-02-22 13:45:00,
2013-02-22 08:50:00,32.6,30.8,30.36,South,170,0.0,0.0,93,0.00,,,0.15,Wunderground v.1.15,2013-02-22 13:50:00,
2013-02-22 08:55:00,32.6,30.8,30.35,South,170,0.0,0.0,93,0.00,,,0.15,Wunderground v.1.15,2013-02-22 13:55:00,
2013-02-22 09:00:00,32.8,31.0,30.35,South,170,0.0,0.0,93,0.00,,,0.16,Wunderground v.1.15,2013-02-22 14:00:00,
2013-02-22 09:05:00,32.8,30.7,30.35,South,170,0.0,0.0,92,0.00,,,0.16,Wunderground v.1.15,2013-02-22 14:05:00,
2013-02-22 09:15:00,32.9,30.8,30.36,South,170,0.0,0.0,92,0.00,,,0.16,Wunderground v.1.15,2013-02-22 14:15:00,
2013-02-22 09:20:00,32.8,30.7,30.36,South,170,0.0,0.0,92,0.00,,,0.16,Wunderground v.1.15,2013-02-22 14:20:00,
2013-02-22 09:25:00,32.7,30.4,30.35,South,170,0.0,0.0,91,0.00,,,0.16,Wunderground v.1.15,2013-02-22 14:25:00,
2013-02-22 09:35:00,32.8,30.7,30.35,South,170,0.0,0.0,92,0.00,,,0.16,Wunderground v.1.15,2013-02-22 14:35:00,
2013-02-22 09:40:00,32.9,30.8,30.35,South,170,0.0,0.0,92,0.00,,,0.17,Wunderground v.1.15,2013-02-22 14:40:00,
2013-02-22 09:45:00,33.1,31.0,30.34,South,170,0.0,0.0,92,0.00,,,0.17,Wunderground v.1.15,2013-02-22 14:45:00,
2013-02-22 09:50:00,33.3,31.2,30.34,South,170,0.0,0.0,92,0.00,,,0.17,Wunderground v.1.15,2013-02-22 14:50:00,
2013-02-22 09:55:00,33.5,31.4,30.33,South,170,0.0,0.0,92,0.00,,,0.17,Wunderground v.1.15,2013-02-22 14:55:00,
2013-02-22 10:05:00,33.8,31.7,30.33,West,276,0.0,0.0,92,0.00,,,0.17,Wunderground v.1.15,2013-02-22 15:05:00,
2013-02-22 10:15:00,33.9,31.8,30.32,West,276,0.0,0.0,92,0.00,,,0.17,Wunderground v.1.15,2013-02-22 15:15:00,
2013-02-22 10:20:00,33.9,31.6,30.33,West,277,0.0,0.0,91,0.00,,,0.17,Wunderground v.1.15,2013-02-22 15:20:00,
2013-02-22 10:25:00,34.0,31.6,30.33,West,277,0.0,0.0,91,0.00,,,0.17,Wunderground v.1.15,2013-02-22 15:25:00,
2013-02-22 10:30:00,34.2,32.1,30.32,West,277,0.0,0.0,92,0.00,,,0.17,Wunderground v.1.15,2013-02-22 15:30:00,
2013-02-22 10:40:00,34.4,32.0,30.33,West,277,0.0,0.0,91,0.00,,,0.17,Wunderground v.1.15,2013-02-22 15:40:00,
2013-02-22 10:45:00,34.4,32.3,30.31,West,277,0.0,0.0,92,0.00,,,0.17,Wunderground v.1.15,2013-02-22 15:45:00,
2013-02-22 10:50:00,34.7,32.6,30.31,West,277,0.0,0.0,92,0.00,,,0.17,Wunderground v.1.15,2013-02-22 15:50:00,
2013-02-22 10:55:00,34.9,32.8,30.33,West,277,0.0,0.0,92,0.00,,,0.17,Wunderground v.1.15,2013-02-22 15:55:00,
2013-02-22 11:00:00,34.8,32.4,30.32,WNW,292,0.0,0.0,91,0.00,,,0.17,Wunderground v.1.15,2013-02-22 16:00:00,
2013-02-22 11:05:00,35.1,32.7,30.33,WNW,292,0.0,1.0,91,0.00,,,0.17,Wunderground v.1.15,2013-02-22 16:05:00,
2013-02-22 11:15:00,35.4,33.0,30.33,NW,312,0.0,0.0,91,0.00,,,0.17,Wunderground v.1.15,2013-02-22 16:15:00,
2013-02-22 11:20:00,35.4,32.8,30.34,NW,312,0.0,0.0,90,0.00,,,0.17,Wunderground v.1.15,2013-02-22 16:20:00,
2013-02-22 11:25:00,35.5,32.9,30.33,NW,312,0.0,0.0,90,0.00,,,0.17,Wunderground v.1.15,2013-02-22 16:25:00,
2013-02-22 11:30:00,35.7,33.1,30.33,NW,312,0.0,0.0,90,0.00,,,0.18,Wunderground v.1.15,2013-02-22 16:30:00,
2013-02-22 11:35:00,36.0,33.4,30.33,NW,312,0.0,0.0,90,0.00,,,0.18,Wunderground v.1.15,2013-02-22 16:35:00,
2013-02-22 11:45:00,36.2,33.0,30.32,NW,312,0.0,0.0,88,0.00,,,0.18,Wunderground v.1.15,2013-02-22 16:45:00,
2013-02-22 11:50:00,36.2,33.0,30.32,NW,325,0.0,0.0,88,0.00,,,0.18,Wunderground v.1.15,2013-02-22 16:50:00,
2013-02-22 11:55:00,36.2,33.0,30.32,SE,131,0.0,0.0,88,0.00,,,0.18,Wunderground v.1.15,2013-02-22 16:55:00,
2013-02-22 12:00:00,36.2,32.7,30.32,ESE,121,0.0,0.0,87,0.00,,,0.18,Wunderground v.1.15,2013-02-22 17:00:00,
2013-02-22 12:05:00,36.4,33.2,30.32,NW,317,0.0,0.0,88,0.00,,,0.18,Wunderground v.1.15,2013-02-22 17:05:00,
2013-02-22 12:15:00,36.6,33.4,30.31,SW,234,0.0,1.0,88,0.00,,,0.18,Wunderground v.1.15,2013-02-22 17:15:00,
2013-02-22 12:20:00,36.6,33.4,30.31,SW,234,0.0,0.0,88,0.00,,,0.18,Wunderground v.1.15,2013-02-22 17:20:00,
2013-02-22 12:25:00,36.7,33.2,30.31,SW,234,0.0,0.0,87,0.00,,,0.18,Wunderground v.1.15,2013-02-22 17:25:00,
2013-02-22 12:30:00,36.8,33.3,30.31,SW,234,0.0,0.0,87,0.00,,,0.18,Wunderground v.1.15,2013-02-22 17:30:00,
2013-02-22 12:35:00,36.8,33.3,30.31,SW,234,0.0,0.0,87,0.00,,,0.18,Wunderground v.1.15,2013-02-22 17:35:00,
2013-02-22 12:40:00,36.8,33.0,30.31,ESE,121,0.0,0.0,86,0.00,,,0.18,Wunderground v.1.15,2013-02-22 17:40:00,
2013-02-22 12:50:00,36.8,33.0,30.30,ESE,121,0.0,0.0,86,0.00,,,0.18,Wunderground v.1.15,2013-02-22 17:50:00,
2013-02-22 12:55:00,36.6,32.8,30.31,SE,128,0.0,2.0,86,0.00,,,0.18,Wunderground v.1.15,2013-02-22 17:55:00,
2013-02-22 13:00:00,36.6,32.8,30.30,SE,128,0.0,0.0,86,0.00,,,0.18,Wunderground v.1.15,2013-02-22 18:00:00,
2013-02-22 13:05:00,36.6,32.8,30.30,SE,128,0.0,0.0,86,0.00,,,0.18,Wunderground v.1.15,2013-02-22 18:05:00,
2013-02-22 13:15:00,36.7,32.9,30.30,SE,128,0.0,0.0,86,0.00,,,0.18,Wunderground v.1.15,2013-02-22 18:15:00,
2013-02-22 13:20:00,36.6,32.8,30.29,SE,128,0.0,0.0,86,0.00,,,0.18,Wunderground v.1.15,2013-02-22 18:20:00,
2013-02-22 13:25:00,36.7,32.9,30.29,SW,219,0.0,0.0,86,0.00,,,0.18,Wunderground v.1.15,2013-02-22 18:25:00,
2013-02-22 13:30:00,36.8,33.3,30.29,SW,219,0.0,0.0,87,0.00,,,0.18,Wunderground v.1.15,2013-02-22 18:30:00,
2013-02-22 13:35:00,36.9,33.4,30.28,SW,219,0.0,0.0,87,0.00,,,0.18,Wunderground v.1.15,2013-02-22 18:35:00,
2013-02-22 13:40:00,37.0,33.8,30.27,SW,219,0.0,1.0,88,0.00,,,0.18,Wunderground v.1.15,2013-02-22 18:40:00,
2013-02-22 13:45:00,37.1,33.9,30.27,West,276,0.0,1.0,88,0.00,,,0.18,Wunderground v.1.15,2013-02-22 18:45:00,
2013-02-22 13:55:00,37.1,33.9,30.25,West,276,0.0,0.0,88,0.00,,,0.18,Wunderground v.1.15,2013-02-22 18:55:00,
2013-02-22 14:00:00,37.2,34.0,30.25,West,276,0.0,0.0,88,0.00,,,0.18,Wunderground v.1.15,2013-02-22 19:00:00,
2013-02-22 14:05:00,37.4,34.2,30.25,West,276,0.0,0.0,88,0.00,,,0.18,Wunderground v.1.15,2013-02-22 19:05:00,
2013-02-22 14:15:00,37.3,33.5,30.25,West,279,0.0,2.0,86,0.00,,,0.18,Wunderground v.1.15,2013-02-22 19:15:00,
2013-02-22 14:20:00,37.3,33.5,30.25,West,280,0.0,0.0,86,0.00,,,0.18,Wunderground v.1.15,2013-02-22 19:20:00,
2013-02-22 14:30:00,37.4,33.3,30.26,West,280,0.0,0.0,85,0.00,,,0.18,Wunderground v.1.15,2013-02-22 19:30:00,
2013-02-22 14:35:00,37.4,33.6,30.26,West,280,0.0,0.0,86,0.00,,,0.18,Wunderground v.1.15,2013-02-22 19:35:00,
2013-02-22 14:40:00,37.5,33.7,30.25,West,280,0.0,0.0,86,0.00,,,0.18,Wunderground v.1.15,2013-02-22 19:40:00,
2013-02-22 14:45:00,37.5,33.7,30.25,West,280,0.0,0.0,86,0.00,,,0.18,Wunderground v.1.15,2013-02-22 19:45:00,
2013-02-22 14:50:00,37.7,33.9,30.26,West,280,0.0,0.0,86,0.00,,,0.18,Wunderground v.1.15,2013-02-22 19:50:00,
2013-02-22 14:55:00,37.7,33.6,30.26,West,280,0.0,0.0,85,0.00,,,0.18,Wunderground v.1.15,2013-02-22 19:55:00,
2013-02-22 15:00:00,37.7,33.6,30.26,NNW,333,0.0,0.0,85,0.00,,,0.18,Wunderground v.1.15,2013-02-22 20:00:00,
2013-02-22 15:05:00,37.7,33.6,30.26,WNW,294,0.0,0.0,85,0.00,,,0.18,Wunderground v.1.15,2013-02-22 20:05:00,
2013-02-22 15:15:00,37.6,33.8,30.25,WNW,294,0.0,0.0,86,0.00,,,0.18,Wunderground v.1.15,2013-02-22 20:15:00,
2013-02-22 15:20:00,37.6,34.1,30.25,WNW,294,0.0,0.0,87,0.00,,,0.18,Wunderground v.1.15,2013-02-22 20:20:00,
2013-02-22 15:25:00,37.6,34.4,30.25,WNW,294,0.0,0.0,88,0.00,,,0.18,Wunderground v.1.15,2013-02-22 20:25:00,
2013-02-22 15:35:00,37.5,34.6,30.25,WNW,294,0.0,0.0,89,0.00,,,0.19,Wunderground v.1.15,2013-02-22 20:35:00,
2013-02-22 15:40:00,37.5,34.6,30.25,WNW,294,0.0,0.0,89,0.00,,,0.19,Wunderground v.1.15,2013-02-22 20:40:00,
2013-02-22 15:45:00,37.4,34.7,30.25,NW,305,0.0,0.0,90,0.00,,,0.19,Wunderground v.1.15,2013-02-22 20:45:00,
2013-02-22 15:50:00,37.3,34.6,30.25,NW,305,0.0,0.0,90,0.00,,,0.19,Wunderground v.1.15,2013-02-22 20:50:00,
2013-02-22 15:55:00,37.2,34.5,30.25,NW,305,0.0,0.0,90,0.00,,,0.19,Wunderground v.1.15,2013-02-22 20:55:00,
2013-02-22 16:00:00,37.1,34.4,30.25,NW,305,0.0,0.0,90,0.00,,,0.19,Wunderground v.1.15,2013-02-22 21:00:00,
2013-02-22 16:05:00,37.2,34.5,30.25,NW,305,0.0,0.0,90,0.00,,,0.19,Wunderground v.1.15,2013-02-22 21:05:00,
2013-02-22 16:15:00,37.3,34.9,30.24,NW,305,0.0,0.0,91,0.00,,,0.19,Wunderground v.1.15,2013-02-22 21:15:00,
2013-02-22 16:20:00,37.3,34.9,30.24,NW,305,0.0,0.0,91,0.00,,,0.19,Wunderground v.1.15,2013-02-22 21:20:00,
2013-02-22 16:25:00,37.2,34.8,30.24,NW,305,0.0,0.0,91,0.00,,,0.19,Wunderground v.1.15,2013-02-22 21:25:00,
2013-02-22 16:30:00,37.2,34.8,30.24,NW,305,0.0,0.0,91,0.00,,,0.19,Wunderground v.1.15,2013-02-22 21:30:00,
2013-02-22 16:40:00,37.2,34.8,30.24,NW,305,0.0,0.0,91,0.23,,,0.24,Wunderground v.1.15,2013-02-22 21:40:00,
2013-02-22 16:45:00,37.2,35.1,30.25,NW,305,0.0,0.0,92,0.11,,,0.24,Wunderground v.1.15,2013-02-22 21:45:00,
2013-02-22 16:50:00,37.2,35.1,30.24,NW,305,0.0,0.0,92,0.06,,,0.24,Wunderground v.1.15,2013-02-22 21:50:00,
2013-02-22 16:55:00,37.1,35.0,30.24,NW,305,0.0,0.0,92,0.04,,,0.24,Wunderground v.1.15,2013-02-22 21:55:00,
2013-02-22 17:00:00,37.0,35.2,30.24,NW,305,0.0,0.0,93,0.00,,,0.24,Wunderground v.1.15,2013-02-22 22:00:00,
2013-02-22 17:05:00,37.0,35.2,30.24,NW,305,0.0,0.0,93,0.00,,,0.24,Wunderground v.1.15,2013-02-22 22:05:00,
2013-02-22 17:15:00,36.9,35.1,30.24,NW,305,0.0,0.0,93,0.00,,,0.25,Wunderground v.1.15,2013-02-22 22:15:00,
2013-02-22 17:20:00,36.8,35.0,30.23,NW,305,0.0,0.0,93,0.00,,,0.25,Wunderground v.1.15,2013-02-22 22:20:00,
2013-02-22 17:25:00,36.8,35.2,30.24,NW,305,0.0,0.0,94,0.00,,,0.25,Wunderground v.1.15,2013-02-22 22:25:00,
2013-02-22 17:30:00,36.8,35.2,30.24,NW,305,0.0,0.0,94,0.04,,,0.25,Wunderground v.1.15,2013-02-22 22:30:00,
2013-02-22 17:35:00,36.8,35.2,30.23,NW,305,0.0,0.0,94,0.04,,,0.26,Wunderground v.1.15,2013-02-22 22:35:00,
2013-02-22 17:45:00,36.8,35.2,30.24,NW,305,0.0,0.0,94,0.08,,,0.27,Wunderground v.1.15,2013-02-22 22:45:00,
2013-02-22 17:50:00,36.8,35.2,30.24,NW,305,0.0,0.0,94,0.05,,,0.27,Wunderground v.1.15,2013-02-22 22:50:00,
2013-02-22 17:55:00,36.8,35.2,30.25,NW,305,0.0,0.0,94,0.00,,,0.27,Wunderground v.1.15,2013-02-22 22:55:00,
2013-02-22 18:00:00,36.8,35.2,30.24,NW,305,0.0,0.0,94,0.00,,,0.27,Wunderground v.1.15,2013-02-22 23:00:00,
2013-02-22 18:05:00,36.8,35.2,30.24,NW,305,0.0,0.0,94,0.00,,,0.27,Wunderground v.1.15,2013-02-22 23:05:00,
2013-02-22 18:15:00,36.7,35.4,30.24,NW,305,0.0,0.0,95,0.00,,,0.27,Wunderground v.1.15,2013-02-22 23:15:00,
2013-02-22 18:20:00,36.7,35.4,30.24,NW,305,0.0,0.0,95,0.00,,,0.27,Wunderground v.1.15,2013-02-22 23:20:00,
2013-02-22 18:25:00,36.6,35.3,30.24,NW,305,0.0,0.0,95,0.00,,,0.27,Wunderground v.1.15,2013-02-22 23:25:00,
2013-02-22 18:30:00,36.6,35.3,30.24,NW,305,0.0,0.0,95,0.00,,,0.28,Wunderground v.1.15,2013-02-22 23:30:00,
2013-02-22 18:35:00,36.6,35.3,30.23,NW,305,0.0,0.0,95,0.00,,,0.28,Wunderground v.1.15,2013-02-22 23:35:00,
2013-02-22 18:40:00,36.6,35.3,30.22,NW,305,0.0,0.0,95,0.00,,,0.28,Wunderground v.1.15,2013-02-22 23:40:00,
2013-02-22 18:50:00,36.5,35.2,30.22,NW,305,0.0,0.0,95,0.00,,,0.28,Wunderground v.1.15,2013-02-22 23:50:00,
2013-02-22 18:55:00,36.5,35.2,30.23,NW,305,0.0,0.0,95,0.00,,,0.28,Wunderground v.1.15,2013-02-22 23:55:00,
2013-02-22 19:00:00,36.5,35.2,30.22,NW,305,0.0,0.0,95,0.00,,,0.28,Wunderground v.1.15,2013-02-23 00:00:00,
2013-02-22 19:05:00,36.4,35.1,30.22,NW,305,0.0,0.0,95,0.00,,,0.28,Wunderground v.1.15,2013-02-23 00:05:00,
2013-02-22 19:15:00,36.4,35.1,30.22,NW,305,0.0,0.0,95,0.00,,,0.28,Wunderground v.1.15,2013-02-23 00:15:00,
2013-02-22 19:20:00,36.4,35.1,30.21,NW,305,0.0,0.0,95,0.00,,,0.28,Wunderground v.1.15,2013-02-23 00:20:00,
2013-02-22 19:25:00,36.4,35.1,30.19,NW,305,0.0,0.0,95,0.00,,,0.28,Wunderground v.1.15,2013-02-23 00:25:00,
2013-02-22 19:30:00,36.3,35.0,30.20,NW,305,0.0,0.0,95,0.00,,,0.28,Wunderground v.1.15,2013-02-23 00:30:00,
2013-02-22 19:35:00,36.4,35.1,30.22,NW,305,0.0,0.0,95,0.00,,,0.28,Wunderground v.1.15,2013-02-23 00:35:00,
2013-02-22 19:40:00,36.4,35.1,30.22,NW,305,0.0,0.0,95,0.00,,,0.28,Wunderground v.1.15,2013-02-23 00:40:00,
2013-02-22 19:45:00,36.4,35.1,30.22,NW,305,0.0,0.0,95,0.00,,,0.28,Wunderground v.1.15,2013-02-23 00:45:00,
2013-02-22 19:55:00,36.3,35.3,30.23,NW,306,0.0,1.0,96,0.00,,,0.29,Wunderground v.1.15,2013-02-23 00:55:00,
2013-02-22 20:00:00,36.3,35.3,30.22,NW,310,0.0,0.0,96,0.00,,,0.29,Wunderground v.1.15,2013-02-23 01:00:00,
2013-02-22 20:05:00,36.3,35.3,30.22,NW,310,0.0,0.0,96,0.00,,,0.29,Wunderground v.1.15,2013-02-23 01:05:00,
2013-02-22 20:15:00,36.2,35.2,30.22,NW,321,0.0,0.0,96,0.00,,,0.29,Wunderground v.1.15,2013-02-23 01:15:00,
2013-02-22 20:20:00,36.2,35.2,30.23,NW,323,0.0,0.0,96,0.00,,,0.29,Wunderground v.1.15,2013-02-23 01:20:00,
2013-02-22 20:30:00,36.2,35.2,30.23,NNW,338,0.0,1.0,96,0.00,,,0.29,Wunderground v.1.15,2013-02-23 01:30:00,
2013-02-22 20:35:00,36.2,35.2,30.23,NNW,341,0.0,1.0,96,0.00,,,0.29,Wunderground v.1.15,2013-02-23 01:35:00,
2013-02-22 20:40:00,36.2,35.2,30.23,NNW,342,0.0,0.0,96,0.00,,,0.29,Wunderground v.1.15,2013-02-23 01:40:00,
2013-02-22 20:45:00,36.1,35.1,30.22,West,271,0.0,0.0,96,0.00,,,0.29,Wunderground v.1.15,2013-02-23 01:45:00,
2013-02-22 20:50:00,36.0,35.0,30.22,West,271,0.0,1.0,96,0.00,,,0.29,Wunderground v.1.15,2013-02-23 01:50:00,
2013-02-22 21:00:00,36.0,35.0,30.23,West,273,0.0,0.0,96,0.00,,,0.30,Wunderground v.1.15,2013-02-23 02:00:00,
2013-02-22 21:05:00,35.9,34.9,30.22,NW,317,0.0,0.0,96,0.00,,,0.30,Wunderground v.1.15,2013-02-23 02:05:00,
2013-02-22 21:15:00,35.8,34.8,30.22,NNW,344,0.0,0.0,96,0.00,,,0.30,Wunderground v.1.15,2013-02-23 02:15:00,
2013-02-22 21:20:00,35.8,34.8,30.22,NNW,344,0.0,0.0,96,0.00,,,0.31,Wunderground v.1.15,2013-02-23 02:20:00,
2013-02-22 21:25:00,35.7,34.7,30.21,NW,325,0.0,0.0,96,0.00,,,0.31,Wunderground v.1.15,2013-02-23 02:25:00,
2013-02-22 21:35:00,35.8,34.8,30.20,NW,325,0.0,0.0,96,0.00,,,0.31,Wunderground v.1.15,2013-02-23 02:35:00,
2013-02-22 21:40:00,35.8,34.8,30.20,NW,325,0.0,0.0,96,0.00,,,0.31,Wunderground v.1.15,2013-02-23 02:40:00,
2013-02-22 21:45:00,35.8,34.8,30.21,NW,325,0.0,0.0,96,0.00,,,0.31,Wunderground v.1.15,2013-02-23 02:45:00,
2013-02-22 21:50:00,35.8,34.8,30.22,NW,325,0.0,0.0,96,0.00,,,0.31,Wunderground v.1.15,2013-02-23 02:50:00,
2013-02-22 21:55:00,35.8,34.8,30.21,NW,325,0.0,0.0,96,0.00,,,0.31,Wunderground v.1.15,2013-02-23 02:55:00,
2013-02-22 22:05:00,35.7,34.7,30.20,NW,325,0.0,0.0,96,0.00,,,0.31,Wunderground v.1.15,2013-02-23 03:05:00,
2013-02-22 22:15:00,35.8,34.8,30.21,NW,325,0.0,0.0,96,0.00,,,0.31,Wunderground v.1.15,2013-02-23 03:15:00,
2013-02-22 22:20:00,35.7,34.7,30.21,NW,325,0.0,0.0,96,0.00,,,0.31,Wunderground v.1.15,2013-02-23 03:20:00,
2013-02-22 22:25:00,35.8,34.8,30.22,NW,325,0.0,0.0,96,0.00,,,0.31,Wunderground v.1.15,2013-02-23 03:25:00,
2013-02-22 22:30:00,35.8,34.8,30.22,NW,325,0.0,0.0,96,0.00,,,0.31,Wunderground v.1.15,2013-02-23 03:30:00,
2013-02-22 22:40:00,35.8,34.8,30.22,NW,313,0.0,0.0,96,0.00,,,0.31,Wunderground v.1.15,2013-02-23 03:40:00,
2013-02-22 22:45:00,35.8,34.8,30.21,North,355,0.0,0.0,96,0.00,,,0.32,Wunderground v.1.15,2013-02-23 03:45:00,
2013-02-22 22:50:00,35.7,34.7,30.21,NW,306,0.0,0.0,96,0.00,,,0.32,Wunderground v.1.15,2013-02-23 03:50:00,
2013-02-22 22:55:00,35.7,34.9,30.22,NW,305,0.0,0.0,97,0.00,,,0.32,Wunderground v.1.15,2013-02-23 03:55:00,
2013-02-22 23:00:00,35.8,35.0,30.21,NNW,328,0.0,0.0,97,0.00,,,0.32,Wunderground v.1.15,2013-02-23 04:00:00,
2013-02-22 23:05:00,35.8,35.0,30.20,NNW,329,0.0,0.0,97,0.00,,,0.32,Wunderground v.1.15,2013-02-23 04:05:00,
2013-02-22 23:15:00,35.7,34.9,30.20,NW,311,0.0,0.0,97,0.00,,,0.32,Wunderground v.1.15,2013-02-23 04:15:00,
2013-02-22 23:20:00,35.7,34.9,30.19,NW,311,0.0,0.0,97,0.00,,,0.32,Wunderground v.1.15,2013-02-23 04:20:00,
2013-02-22 23:25:00,35.7,34.9,30.18,NW,311,0.0,0.0,97,0.00,,,0.32,Wunderground v.1.15,2013-02-23 04:25:00,
2013-02-22 23:30:00,35.7,34.9,30.18,NW,311,0.0,0.0,97,0.00,,,0.32,Wunderground v.1.15,2013-02-23 04:30:00,
2013-02-22 23:35:00,35.7,34.9,30.18,NW,311,0.0,0.0,97,0.00,,,0.33,Wunderground v.1.15,2013-02-23 04:35:00,
2013-02-22 23:40:00,35.7,34.9,30.18,NW,311,0.0,0.0,97,0.00,,,0.33,Wunderground v.1.15,2013-02-23 04:40:00,
2013-02-22 23:50:00,35.8,35.0,30.17,NE,46,0.0,0.0,97,0.00,,,0.33,Wunderground v.1.15,2013-02-23 04:50:00,
2013-02-22 23:55:00,35.8,35.0,30.16,WNW,286,0.0,0.0,97,0.00,,,0.33,Wunderground v.1.15,2013-02-23 04:55:00,